sensor_id;sensor_type;location;lat;lon;timestamp;pressure;altitude;pressure_sealevel;temperature;humidity
9740;BME280;4909;42.680;26.324;2024-01-15T00:02:26;98131.50;;;2.55;58.08
9740;BME280;4909;42.680;26.324;2024-01-15T00:04:53;98096.16;;;2.33;57.82
9740;BME280;4909;42.680;26.324;2024-01-15T00:07:20;98138.22;;;2.67;57.22
9740;BME280;4909;42.680;26.324;2024-01-15T00:09:47;98138.31;;;2.62;56.50
9740;BME280;4909;42.680;26.324;2024-01-15T00:12:14;98117.81;;;2.41;57.02
9740;BME280;4909;42.680;26.324;2024-01-15T00:14:41;98122.94;;;2.47;56.88
9740;BME280;4909;42.680;26.324;2024-01-15T00:17:09;98124.75;;;2.43;57.83
9740;BME280;4909;42.680;26.324;2024-01-15T00:19:36;98128.19;;;2.47;58.04
9740;BME280;4909;42.680;26.324;2024-01-15T00:22:03;98130.63;;;2.54;56.98
9740;BME280;4909;42.680;26.324;2024-01-15T00:24:30;98136.28;;;2.33;58.04
9740;BME280;4909;42.680;26.324;2024-01-15T00:26:57;98143.19;;;2.37;58.48
9740;BME280;4909;42.680;26.324;2024-01-15T00:29:24;98103.41;;;2.20;57.91
9740;BME280;4909;42.680;26.324;2024-01-15T00:31:51;98126.34;;;2.07;58.35
9740;BME280;4909;42.680;26.324;2024-01-15T00:34:20;98144.66;;;2.07;59.13
9740;BME280;4909;42.680;26.324;2024-01-15T00:36:47;98093.34;;;1.99;58.96
9740;BME280;4909;42.680;26.324;2024-01-15T00:39:14;98136.47;;;2.24;59.00
9740;BME280;4909;42.680;26.324;2024-01-15T00:41:42;98144.31;;;2.26;59.63
9740;BME280;4909;42.680;26.324;2024-01-15T00:44:09;98125.13;;;2.25;58.73
9740;BME280;4909;42.680;26.324;2024-01-15T00:46:42;98125.13;;;2.24;58.79
9740;BME280;4909;42.680;26.324;2024-01-15T00:49:10;98134.75;;;2.23;58.96
9740;BME280;4909;42.680;26.324;2024-01-15T00:51:39;98071.00;;;1.81;58.92
9740;BME280;4909;42.680;26.324;2024-01-15T00:54:07;98125.41;;;2.10;59.43
9740;BME280;4909;42.680;26.324;2024-01-15T00:56:34;98130.44;;;2.22;59.75
9740;BME280;4909;42.680;26.324;2024-01-15T00:59:01;98000.19;;;1.46;59.20
9740;BME280;4909;42.680;26.324;2024-01-15T01:01:28;98075.06;;;1.97;59.07
9740;BME280;4909;42.680;26.324;2024-01-15T01:03:55;98076.75;;;2.00;59.66
9740;BME280;4909;42.680;26.324;2024-01-15T01:06:22;98106.00;;;2.22;59.22
9740;BME280;4909;42.680;26.324;2024-01-15T01:08:51;98077.41;;;2.12;58.64
9740;BME280;4909;42.680;26.324;2024-01-15T01:11:18;98127.66;;;2.30;59.16
9740;BME280;4909;42.680;26.324;2024-01-15T01:13:45;98130.47;;;2.19;59.30
9740;BME280;4909;42.680;26.324;2024-01-15T01:16:12;98070.09;;;1.84;59.21
9740;BME280;4909;42.680;26.324;2024-01-15T01:18:39;98133.28;;;2.08;59.54
9740;BME280;4909;42.680;26.324;2024-01-15T01:21:06;98131.50;;;2.12;59.53
9740;BME280;4909;42.680;26.324;2024-01-15T01:23:33;98100.06;;;1.66;61.10
9740;BME280;4909;42.680;26.324;2024-01-15T01:26:01;98132.06;;;1.80;60.64
9740;BME280;4909;42.680;26.324;2024-01-15T01:28:28;98097.44;;;1.66;60.32
9740;BME280;4909;42.680;26.324;2024-01-15T01:30:55;98047.38;;;1.38;60.16
9740;BME280;4909;42.680;26.324;2024-01-15T01:33:22;98130.28;;;1.84;60.31
9740;BME280;4909;42.680;26.324;2024-01-15T01:35:49;98125.34;;;1.65;60.41
9740;BME280;4909;42.680;26.324;2024-01-15T01:38:16;98069.97;;;1.44;59.92
9740;BME280;4909;42.680;26.324;2024-01-15T01:40:43;98065.59;;;1.44;59.37
9740;BME280;4909;42.680;26.324;2024-01-15T01:43:11;98111.31;;;1.69;59.50
9740;BME280;4909;42.680;26.324;2024-01-15T01:45:38;98133.19;;;1.65;60.85
9740;BME280;4909;42.680;26.324;2024-01-15T01:48:06;98098.50;;;1.56;59.97
9740;BME280;4909;42.680;26.324;2024-01-15T01:50:33;98135.72;;;1.70;60.18
9740;BME280;4909;42.680;26.324;2024-01-15T01:53:00;98083.31;;;1.27;60.63
9740;BME280;4909;42.680;26.324;2024-01-15T01:55:30;98122.19;;;1.47;60.60
9740;BME280;4909;42.680;26.324;2024-01-15T01:57:59;98102.13;;;1.47;60.90
9740;BME280;4909;42.680;26.324;2024-01-15T02:00:29;98131.34;;;1.73;60.31
9740;BME280;4909;42.680;26.324;2024-01-15T02:02:57;98129.75;;;1.63;61.16
9740;BME280;4909;42.680;26.324;2024-01-15T02:05:24;98123.75;;;1.58;62.85
9740;BME280;4909;42.680;26.324;2024-01-15T02:07:51;98123.69;;;1.61;62.23
9740;BME280;4909;42.680;26.324;2024-01-15T02:10:18;98122.88;;;1.58;62.65
9740;BME280;4909;42.680;26.324;2024-01-15T02:12:45;98033.31;;;0.96;63.19
9740;BME280;4909;42.680;26.324;2024-01-15T02:15:14;98117.91;;;1.43;64.25
9740;BME280;4909;42.680;26.324;2024-01-15T02:17:58;98052.81;;;1.26;62.08
9740;BME280;4909;42.680;26.324;2024-01-15T02:20:25;98090.84;;;1.45;61.23
9740;BME280;4909;42.680;26.324;2024-01-15T02:22:53;98090.34;;;1.23;62.82
9740;BME280;4909;42.680;26.324;2024-01-15T02:25:21;98115.50;;;1.30;63.50
9740;BME280;4909;42.680;26.324;2024-01-15T02:27:48;98101.50;;;1.35;63.52
9740;BME280;4909;42.680;26.324;2024-01-15T02:30:15;98111.94;;;1.35;62.78
9740;BME280;4909;42.680;26.324;2024-01-15T02:32:43;98044.56;;;1.00;62.44
9740;BME280;4909;42.680;26.324;2024-01-15T02:35:10;98103.97;;;1.42;62.77
9740;BME280;4909;42.680;26.324;2024-01-15T02:37:37;98081.63;;;1.23;63.61
9740;BME280;4909;42.680;26.324;2024-01-15T02:40:05;98105.78;;;1.37;63.24
9740;BME280;4909;42.680;26.324;2024-01-15T02:42:33;98077.34;;;1.20;63.31
9740;BME280;4909;42.680;26.324;2024-01-15T02:45:00;98098.09;;;1.28;63.20
9740;BME280;4909;42.680;26.324;2024-01-15T02:47:27;98088.38;;;1.36;63.68
9740;BME280;4909;42.680;26.324;2024-01-15T02:49:54;98079.63;;;1.40;63.56
9740;BME280;4909;42.680;26.324;2024-01-15T02:52:21;97989.72;;;0.98;62.32
9740;BME280;4909;42.680;26.324;2024-01-15T02:54:48;98037.28;;;1.17;62.14
9740;BME280;4909;42.680;26.324;2024-01-15T02:57:15;98014.88;;;1.04;62.70
9740;BME280;4909;42.680;26.324;2024-01-15T02:59:44;97993.31;;;0.91;63.07
9740;BME280;4909;42.680;26.324;2024-01-15T03:02:11;98043.13;;;1.33;62.79
9740;BME280;4909;42.680;26.324;2024-01-15T03:04:42;97916.34;;;0.61;63.07
9740;BME280;4909;42.680;26.324;2024-01-15T03:07:10;98031.81;;;1.32;62.25
9740;BME280;4909;42.680;26.324;2024-01-15T03:09:37;98029.97;;;1.37;62.12
9740;BME280;4909;42.680;26.324;2024-01-15T03:12:04;98065.16;;;1.67;61.95
9740;BME280;4909;42.680;26.324;2024-01-15T03:14:31;98042.88;;;1.48;61.66
9740;BME280;4909;42.680;26.324;2024-01-15T03:17:00;98030.91;;;1.33;62.61
9740;BME280;4909;42.680;26.324;2024-01-15T03:19:27;98058.56;;;1.48;62.40
9740;BME280;4909;42.680;26.324;2024-01-15T03:21:54;98061.19;;;1.46;62.24
9740;BME280;4909;42.680;26.324;2024-01-15T03:24:21;98016.88;;;1.40;61.33
9740;BME280;4909;42.680;26.324;2024-01-15T03:26:48;98026.88;;;1.64;61.00
9740;BME280;4909;42.680;26.324;2024-01-15T03:29:15;98030.03;;;1.80;60.93
9740;BME280;4909;42.680;26.324;2024-01-15T03:31:42;98043.00;;;1.86;60.71
9740;BME280;4909;42.680;26.324;2024-01-15T03:34:11;97995.59;;;1.58;60.56
9740;BME280;4909;42.680;26.324;2024-01-15T03:36:38;98046.59;;;1.82;61.09
9740;BME280;4909;42.680;26.324;2024-01-15T03:39:06;98049.22;;;1.81;61.88
9740;BME280;4909;42.680;26.324;2024-01-15T03:41:33;98026.97;;;1.58;62.35
9740;BME280;4909;42.680;26.324;2024-01-15T03:44:00;98048.81;;;2.00;60.77
9740;BME280;4909;42.680;26.324;2024-01-15T03:46:27;98042.00;;;1.93;60.88
9740;BME280;4909;42.680;26.324;2024-01-15T03:48:54;97972.97;;;1.56;60.85
9740;BME280;4909;42.680;26.324;2024-01-15T03:51:23;98016.75;;;1.91;60.63
9740;BME280;4909;42.680;26.324;2024-01-15T03:53:50;98034.88;;;2.00;60.62
9740;BME280;4909;42.680;26.324;2024-01-15T03:56:17;97973.16;;;1.47;60.40
9740;BME280;4909;42.680;26.324;2024-01-15T03:58:44;98009.97;;;1.81;60.43
9740;BME280;4909;42.680;26.324;2024-01-15T04:01:11;98026.25;;;1.96;60.46
9740;BME280;4909;42.680;26.324;2024-01-15T04:03:38;98017.63;;;1.91;60.91
9740;BME280;4909;42.680;26.324;2024-01-15T04:06:05;98061.72;;;2.11;60.05
9740;BME280;4909;42.680;26.324;2024-01-15T04:08:33;98027.13;;;1.95;59.81
9740;BME280;4909;42.680;26.324;2024-01-15T04:11:01;98057.16;;;2.19;60.03
9740;BME280;4909;42.680;26.324;2024-01-15T04:13:28;98062.41;;;2.19;60.37
9740;BME280;4909;42.680;26.324;2024-01-15T04:15:55;97998.06;;;1.66;60.56
9740;BME280;4909;42.680;26.324;2024-01-15T04:18:22;98059.97;;;2.10;59.90
9740;BME280;4909;42.680;26.324;2024-01-15T04:20:49;98062.56;;;2.11;60.45
9740;BME280;4909;42.680;26.324;2024-01-15T04:23:16;97994.47;;;1.71;60.26
9740;BME280;4909;42.680;26.324;2024-01-15T04:25:44;98067.63;;;2.21;59.39
9740;BME280;4909;42.680;26.324;2024-01-15T04:28:11;98053.28;;;1.95;59.99
9740;BME280;4909;42.680;26.324;2024-01-15T04:30:38;98042.22;;;1.83;60.55
9740;BME280;4909;42.680;26.324;2024-01-15T04:33:05;98056.78;;;1.94;60.49
9740;BME280;4909;42.680;26.324;2024-01-15T04:35:33;98048.81;;;2.02;60.30
9740;BME280;4909;42.680;26.324;2024-01-15T04:38:00;97991.75;;;1.76;59.94
9740;BME280;4909;42.680;26.324;2024-01-15T04:40:27;97979.56;;;1.75;60.01
9740;BME280;4909;42.680;26.324;2024-01-15T04:42:56;98044.91;;;2.23;60.19
9740;BME280;4909;42.680;26.324;2024-01-15T04:45:23;98036.78;;;2.33;59.69
9740;BME280;4909;42.680;26.324;2024-01-15T04:47:54;98001.22;;;2.25;58.89
9740;BME280;4909;42.680;26.324;2024-01-15T04:50:21;98037.56;;;2.38;58.83
9740;BME280;4909;42.680;26.324;2024-01-15T04:52:49;97976.59;;;1.93;59.16
9740;BME280;4909;42.680;26.324;2024-01-15T04:55:16;98025.44;;;2.34;59.15
9740;BME280;4909;42.680;26.324;2024-01-15T04:57:43;98036.84;;;2.32;59.42
9740;BME280;4909;42.680;26.324;2024-01-15T05:00:12;98039.38;;;2.35;59.57
9740;BME280;4909;42.680;26.324;2024-01-15T05:02:40;98022.16;;;2.25;58.96
9740;BME280;4909;42.680;26.324;2024-01-15T05:05:07;98044.50;;;2.41;58.33
9740;BME280;4909;42.680;26.324;2024-01-15T05:07:34;98036.00;;;2.30;58.96
9740;BME280;4909;42.680;26.324;2024-01-15T05:10:01;98017.91;;;2.19;59.16
9740;BME280;4909;42.680;26.324;2024-01-15T05:12:29;98033.16;;;2.42;58.53
9740;BME280;4909;42.680;26.324;2024-01-15T05:14:56;97984.53;;;2.29;57.84
9740;BME280;4909;42.680;26.324;2024-01-15T05:17:24;98028.66;;;2.47;58.56
9740;BME280;4909;42.680;26.324;2024-01-15T05:19:51;98045.38;;;2.41;59.51
9740;BME280;4909;42.680;26.324;2024-01-15T05:22:18;98051.41;;;2.43;58.96
9740;BME280;4909;42.680;26.324;2024-01-15T05:24:46;97974.00;;;1.90;59.87
9740;BME280;4909;42.680;26.324;2024-01-15T05:27:14;98002.28;;;2.16;59.65
9740;BME280;4909;42.680;26.324;2024-01-15T05:29:41;97978.94;;;2.05;59.65
9740;BME280;4909;42.680;26.324;2024-01-15T05:32:08;97903.13;;;1.61;59.41
9740;BME280;4909;42.680;26.324;2024-01-15T05:34:36;98013.41;;;2.26;59.33
9740;BME280;4909;42.680;26.324;2024-01-15T05:37:03;97960.44;;;1.73;60.49
9740;BME280;4909;42.680;26.324;2024-01-15T05:39:30;97926.25;;;1.38;61.14
9740;BME280;4909;42.680;26.324;2024-01-15T05:41:58;97981.06;;;1.88;60.78
9740;BME280;4909;42.680;26.324;2024-01-15T05:44:26;98039.66;;;2.23;60.76
9740;BME280;4909;42.680;26.324;2024-01-15T05:46:53;97802.72;;;0.86;60.29
9740;BME280;4909;42.680;26.324;2024-01-15T05:49:20;98034.91;;;2.40;59.34
9740;BME280;4909;42.680;26.324;2024-01-15T05:51:49;98013.72;;;2.12;59.72
9740;BME280;4909;42.680;26.324;2024-01-15T05:54:18;97975.44;;;2.06;59.60
9740;BME280;4909;42.680;26.324;2024-01-15T05:56:45;98017.66;;;2.31;59.09
9740;BME280;4909;42.680;26.324;2024-01-15T05:59:13;97984.16;;;2.07;58.99
9740;BME280;4909;42.680;26.324;2024-01-15T06:01:41;98036.78;;;2.35;59.29
9740;BME280;4909;42.680;26.324;2024-01-15T06:04:07;98029.81;;;2.34;59.24
9740;BME280;4909;42.680;26.324;2024-01-15T06:06:34;98014.56;;;2.12;59.51
9740;BME280;4909;42.680;26.324;2024-01-15T06:09:03;98010.28;;;2.08;59.55
9740;BME280;4909;42.680;26.324;2024-01-15T06:11:32;98002.75;;;1.93;59.94
9740;BME280;4909;42.680;26.324;2024-01-15T06:13:59;98030.69;;;2.33;59.53
9740;BME280;4909;42.680;26.324;2024-01-15T06:16:26;97920.56;;;1.62;59.75
9740;BME280;4909;42.680;26.324;2024-01-15T06:18:53;97950.47;;;1.90;59.91
9740;BME280;4909;42.680;26.324;2024-01-15T06:21:20;97939.88;;;1.96;59.07
9740;BME280;4909;42.680;26.324;2024-01-15T06:23:47;98032.84;;;2.54;58.65
9740;BME280;4909;42.680;26.324;2024-01-15T06:26:16;98012.84;;;2.11;59.95
9740;BME280;4909;42.680;26.324;2024-01-15T06:28:43;98031.22;;;2.50;59.07
9740;BME280;4909;42.680;26.324;2024-01-15T06:31:10;97940.31;;;2.16;58.32
9740;BME280;4909;42.680;26.324;2024-01-15T06:33:37;98031.44;;;2.78;57.96
9740;BME280;4909;42.680;26.324;2024-01-15T06:36:05;98025.97;;;2.87;57.80
9740;BME280;4909;42.680;26.324;2024-01-15T06:38:33;98022.41;;;3.25;57.15
9740;BME280;4909;42.680;26.324;2024-01-15T06:41:00;97948.72;;;3.35;54.92
9740;BME280;4909;42.680;26.324;2024-01-15T06:43:28;97978.28;;;4.04;53.75
9740;BME280;4909;42.680;26.324;2024-01-15T06:45:55;97986.97;;;4.64;52.27
9740;BME280;4909;42.680;26.324;2024-01-15T06:48:22;97993.44;;;5.59;49.88
9740;BME280;4909;42.680;26.324;2024-01-15T06:50:49;97998.41;;;5.67;49.34
9740;BME280;4909;42.680;26.324;2024-01-15T06:53:16;98005.00;;;5.80;48.07
9740;BME280;4909;42.680;26.324;2024-01-15T06:55:43;97981.44;;;5.51;47.90
9740;BME280;4909;42.680;26.324;2024-01-15T06:58:10;97970.75;;;5.31;48.10
9740;BME280;4909;42.680;26.324;2024-01-15T07:00:39;98018.84;;;5.60;47.97
9740;BME280;4909;42.680;26.324;2024-01-15T07:03:06;98018.34;;;5.49;48.14
9740;BME280;4909;42.680;26.324;2024-01-15T07:05:33;98021.69;;;5.54;47.71
9740;BME280;4909;42.680;26.324;2024-01-15T07:08:00;98039.91;;;5.34;48.22
9740;BME280;4909;42.680;26.324;2024-01-15T07:10:27;98030.78;;;5.44;48.28
9740;BME280;4909;42.680;26.324;2024-01-15T07:12:54;98018.94;;;5.57;48.22
9740;BME280;4909;42.680;26.324;2024-01-15T07:15:21;98033.28;;;6.70;45.30
9740;BME280;4909;42.680;26.324;2024-01-15T07:17:49;97993.50;;;7.39;42.41
9740;BME280;4909;42.680;26.324;2024-01-15T07:20:16;98042.69;;;8.43;40.85
9740;BME280;4909;42.680;26.324;2024-01-15T07:22:44;98027.19;;;8.92;39.73
9740;BME280;4909;42.680;26.324;2024-01-15T07:25:11;98026.47;;;9.43;39.51
9740;BME280;4909;42.680;26.324;2024-01-15T07:27:39;98005.41;;;9.40;38.25
9740;BME280;4909;42.680;26.324;2024-01-15T07:30:10;98038.09;;;9.57;37.93
9740;BME280;4909;42.680;26.324;2024-01-15T07:32:57;98032.59;;;10.12;36.66
9740;BME280;4909;42.680;26.324;2024-01-15T07:35:24;98034.34;;;10.79;35.89
9740;BME280;4909;42.680;26.324;2024-01-15T07:37:51;98026.47;;;11.70;34.06
9740;BME280;4909;42.680;26.324;2024-01-15T07:40:18;97957.19;;;10.98;33.44
9740;BME280;4909;42.680;26.324;2024-01-15T07:42:45;97955.56;;;11.41;32.79
9740;BME280;4909;42.680;26.324;2024-01-15T07:45:13;98003.06;;;12.35;31.81
9740;BME280;4909;42.680;26.324;2024-01-15T07:47:40;97971.97;;;12.63;31.48
9740;BME280;4909;42.680;26.324;2024-01-15T07:50:08;97990.38;;;12.95;30.85
9740;BME280;4909;42.680;26.324;2024-01-15T07:52:35;97976.44;;;13.04;30.27
9740;BME280;4909;42.680;26.324;2024-01-15T07:55:03;97994.66;;;13.38;29.59
9740;BME280;4909;42.680;26.324;2024-01-15T07:57:30;97998.81;;;13.42;29.62
9740;BME280;4909;42.680;26.324;2024-01-15T07:59:57;97992.22;;;13.87;29.09
9740;BME280;4909;42.680;26.324;2024-01-15T08:02:24;98027.19;;;14.22;28.40
9740;BME280;4909;42.680;26.324;2024-01-15T08:04:51;97962.28;;;13.57;28.60
9740;BME280;4909;42.680;26.324;2024-01-15T08:07:20;97995.81;;;13.34;29.61
9740;BME280;4909;42.680;26.324;2024-01-15T08:09:47;98010.88;;;13.48;29.48
9740;BME280;4909;42.680;26.324;2024-01-15T08:12:14;98009.03;;;14.53;28.07
9740;BME280;4909;42.680;26.324;2024-01-15T08:14:41;98014.66;;;15.59;27.02
9740;BME280;4909;42.680;26.324;2024-01-15T08:17:08;98008.97;;;16.44;25.68
9740;BME280;4909;42.680;26.324;2024-01-15T08:19:35;97965.75;;;16.49;25.48
9740;BME280;4909;42.680;26.324;2024-01-15T08:22:03;97975.59;;;17.26;24.49
9740;BME280;4909;42.680;26.324;2024-01-15T08:24:31;97983.81;;;18.09;23.33
9740;BME280;4909;42.680;26.324;2024-01-15T08:26:58;98004.75;;;18.15;24.08
9740;BME280;4909;42.680;26.324;2024-01-15T08:29:25;97958.19;;;18.26;22.92
9740;BME280;4909;42.680;26.324;2024-01-15T08:31:52;97944.13;;;19.04;21.84
9740;BME280;4909;42.680;26.324;2024-01-15T08:34:19;98013.13;;;19.93;21.61
9740;BME280;4909;42.680;26.324;2024-01-15T08:36:46;98014.13;;;20.11;21.41
9740;BME280;4909;42.680;26.324;2024-01-15T08:39:13;98010.28;;;19.16;22.41
9740;BME280;4909;42.680;26.324;2024-01-15T08:41:41;97990.44;;;19.17;21.74
9740;BME280;4909;42.680;26.324;2024-01-15T08:44:08;97978.06;;;18.95;22.83
9740;BME280;4909;42.680;26.324;2024-01-15T08:46:35;97994.47;;;18.20;23.59
9740;BME280;4909;42.680;26.324;2024-01-15T08:49:03;97940.34;;;17.95;23.86
9740;BME280;4909;42.680;26.324;2024-01-15T08:51:31;97973.66;;;17.92;24.35
9740;BME280;4909;42.680;26.324;2024-01-15T08:53:58;97967.44;;;17.17;25.33
9740;BME280;4909;42.680;26.324;2024-01-15T08:56:25;97960.56;;;17.35;25.54
9740;BME280;4909;42.680;26.324;2024-01-15T08:58:54;97931.59;;;17.18;25.74
9740;BME280;4909;42.680;26.324;2024-01-15T09:01:21;97962.63;;;17.43;25.64
9740;BME280;4909;42.680;26.324;2024-01-15T09:03:48;97967.72;;;18.09;24.91
9740;BME280;4909;42.680;26.324;2024-01-15T09:06:15;97953.78;;;18.46;24.48
9740;BME280;4909;42.680;26.324;2024-01-15T09:08:42;97958.38;;;17.93;25.04
9740;BME280;4909;42.680;26.324;2024-01-15T09:11:09;97907.41;;;17.29;25.54
9740;BME280;4909;42.680;26.324;2024-01-15T09:13:36;97937.28;;;16.81;26.21
9740;BME280;4909;42.680;26.324;2024-01-15T09:16:05;97934.75;;;16.69;26.18
9740;BME280;4909;42.680;26.324;2024-01-15T09:18:32;97919.53;;;16.58;26.39
9740;BME280;4909;42.680;26.324;2024-01-15T09:20:59;97947.34;;;16.33;26.93
9740;BME280;4909;42.680;26.324;2024-01-15T09:23:26;97939.31;;;15.65;27.89
9740;BME280;4909;42.680;26.324;2024-01-15T09:25:53;97929.88;;;15.48;28.47
9740;BME280;4909;42.680;26.324;2024-01-15T09:28:20;97925.22;;;15.63;28.19
9740;BME280;4909;42.680;26.324;2024-01-15T09:30:48;97927.31;;;15.47;28.68
9740;BME280;4909;42.680;26.324;2024-01-15T09:33:16;97904.66;;;14.92;29.32
9740;BME280;4909;42.680;26.324;2024-01-15T09:35:43;97920.09;;;14.40;30.27
9740;BME280;4909;42.680;26.324;2024-01-15T09:38:10;97905.78;;;13.90;31.20
9740;BME280;4909;42.680;26.324;2024-01-15T09:40:38;97897.25;;;13.85;32.01
9740;BME280;4909;42.680;26.324;2024-01-15T09:43:10;97900.03;;;13.31;32.64
9740;BME280;4909;42.680;26.324;2024-01-15T09:45:37;97890.47;;;13.02;32.93
9740;BME280;4909;42.680;26.324;2024-01-15T09:48:05;97793.59;;;12.10;33.58
9740;BME280;4909;42.680;26.324;2024-01-15T09:50:34;97873.44;;;12.37;34.17
9740;BME280;4909;42.680;26.324;2024-01-15T09:53:01;97867.22;;;11.81;35.55
9740;BME280;4909;42.680;26.324;2024-01-15T09:55:29;97871.34;;;11.71;36.19
9740;BME280;4909;42.680;26.324;2024-01-15T09:58:00;97873.06;;;11.28;36.95
9740;BME280;4909;42.680;26.324;2024-01-15T10:00:28;97833.38;;;11.11;36.98
9740;BME280;4909;42.680;26.324;2024-01-15T10:02:56;97870.94;;;11.19;37.27
9740;BME280;4909;42.680;26.324;2024-01-15T10:05:25;97831.72;;;10.64;37.65
9740;BME280;4909;42.680;26.324;2024-01-15T10:07:53;97854.53;;;10.04;39.82
9740;BME280;4909;42.680;26.324;2024-01-15T10:10:21;97858.09;;;10.03;39.74
9740;BME280;4909;42.680;26.324;2024-01-15T10:12:49;97848.69;;;9.82;40.07
9740;BME280;4909;42.680;26.324;2024-01-15T10:15:16;97850.50;;;9.64;40.63
9740;BME280;4909;42.680;26.324;2024-01-15T10:17:43;97848.69;;;9.97;39.69
9740;BME280;4909;42.680;26.324;2024-01-15T10:20:11;97810.88;;;9.63;40.04
9740;BME280;4909;42.680;26.324;2024-01-15T10:22:40;97847.25;;;9.92;40.35
9740;BME280;4909;42.680;26.324;2024-01-15T10:25:11;97813.34;;;9.66;40.27
9740;BME280;4909;42.680;26.324;2024-01-15T10:27:38;97849.28;;;9.54;41.12
9740;BME280;4909;42.680;26.324;2024-01-15T10:30:07;97829.94;;;9.36;40.90
9740;BME280;4909;42.680;26.324;2024-01-15T10:32:34;97843.25;;;9.35;41.88
9740;BME280;4909;42.680;26.324;2024-01-15T10:35:01;97810.53;;;8.86;42.05
9740;BME280;4909;42.680;26.324;2024-01-15T10:37:32;97818.19;;;8.73;43.56
9740;BME280;4909;42.680;26.324;2024-01-15T10:40:01;97801.09;;;8.80;43.44
9740;BME280;4909;42.680;26.324;2024-01-15T10:42:32;97782.03;;;8.56;44.55
9740;BME280;4909;42.680;26.324;2024-01-15T10:44:59;97818.03;;;8.59;45.28
9740;BME280;4909;42.680;26.324;2024-01-15T10:47:26;97790.63;;;8.43;45.18
9740;BME280;4909;42.680;26.324;2024-01-15T10:49:53;97784.19;;;8.48;44.54
9740;BME280;4909;42.680;26.324;2024-01-15T10:52:21;97773.75;;;8.62;44.13
9740;BME280;4909;42.680;26.324;2024-01-15T10:54:49;97745.56;;;7.91;45.53
9740;BME280;4909;42.680;26.324;2024-01-15T10:57:17;97788.22;;;7.65;46.80
9740;BME280;4909;42.680;26.324;2024-01-15T10:59:46;97777.06;;;7.77;47.37
9740;BME280;4909;42.680;26.324;2024-01-15T11:02:14;97747.91;;;7.97;47.48
9740;BME280;4909;42.680;26.324;2024-01-15T11:04:41;97764.13;;;8.44;46.12
9740;BME280;4909;42.680;26.324;2024-01-15T11:07:10;97771.69;;;8.69;45.55
9740;BME280;4909;42.680;26.324;2024-01-15T11:09:37;97740.78;;;8.52;44.47
9740;BME280;4909;42.680;26.324;2024-01-15T11:12:10;97691.06;;;8.24;44.89
9740;BME280;4909;42.680;26.324;2024-01-15T11:14:41;97770.44;;;8.76;44.99
9740;BME280;4909;42.680;26.324;2024-01-15T11:17:11;97740.00;;;8.67;45.36
9740;BME280;4909;42.680;26.324;2024-01-15T11:19:38;97774.00;;;8.92;45.28
9740;BME280;4909;42.680;26.324;2024-01-15T11:22:11;97717.91;;;8.86;45.11
9740;BME280;4909;42.680;26.324;2024-01-15T11:24:57;97732.81;;;9.04;45.33
9740;BME280;4909;42.680;26.324;2024-01-15T11:27:39;97716.28;;;8.66;46.55
9740;BME280;4909;42.680;26.324;2024-01-15T11:30:09;97737.75;;;8.77;47.12
9740;BME280;4909;42.680;26.324;2024-01-15T11:32:39;97758.19;;;9.08;47.78
9740;BME280;4909;42.680;26.324;2024-01-15T11:35:08;97747.56;;;8.75;47.81
9740;BME280;4909;42.680;26.324;2024-01-15T11:37:57;97744.56;;;8.81;48.92
9740;BME280;4909;42.680;26.324;2024-01-15T11:40:37;97715.56;;;8.62;48.38
9740;BME280;4909;42.680;26.324;2024-01-15T11:43:05;97738.13;;;9.04;48.37
9740;BME280;4909;42.680;26.324;2024-01-15T11:45:32;97699.63;;;8.64;47.95
9740;BME280;4909;42.680;26.324;2024-01-15T11:48:12;97680.13;;;8.49;48.90
9740;BME280;4909;42.680;26.324;2024-01-15T11:50:43;97733.31;;;8.95;48.18
9740;BME280;4909;42.680;26.324;2024-01-15T11:53:21;97728.25;;;8.90;47.88
9740;BME280;4909;42.680;26.324;2024-01-15T11:55:51;97735.72;;;8.99;47.80
9740;BME280;4909;42.680;26.324;2024-01-15T11:58:19;97579.50;;;7.66;48.65
9740;BME280;4909;42.680;26.324;2024-01-15T12:00:48;97742.88;;;8.10;50.09
9740;BME280;4909;42.680;26.324;2024-01-15T12:03:16;97698.88;;;8.09;49.92
9740;BME280;4909;42.680;26.324;2024-01-15T12:05:43;97705.56;;;8.35;48.95
9740;BME280;4909;42.680;26.324;2024-01-15T12:08:10;97735.72;;;8.31;49.48
9740;BME280;4909;42.680;26.324;2024-01-15T12:10:38;97709.28;;;8.31;49.13
9740;BME280;4909;42.680;26.324;2024-01-15T12:13:27;97719.00;;;8.64;49.45
9740;BME280;4909;42.680;26.324;2024-01-15T12:15:54;97664.41;;;8.63;48.60
9740;BME280;4909;42.680;26.324;2024-01-15T12:18:21;97682.66;;;8.85;47.72
9740;BME280;4909;42.680;26.324;2024-01-15T12:20:48;97711.41;;;9.08;47.94
9740;BME280;4909;42.680;26.324;2024-01-15T12:23:15;97660.34;;;8.73;47.69
9740;BME280;4909;42.680;26.324;2024-01-15T12:25:43;97711.78;;;9.01;47.49
9740;BME280;4909;42.680;26.324;2024-01-15T12:28:10;97716.09;;;8.86;48.36
9740;BME280;4909;42.680;26.324;2024-01-15T12:30:39;97701.25;;;8.84;47.70
9740;BME280;4909;42.680;26.324;2024-01-15T12:33:06;97690.97;;;8.78;47.46
9740;BME280;4909;42.680;26.324;2024-01-15T12:35:34;97669.75;;;8.79;47.93
9740;BME280;4909;42.680;26.324;2024-01-15T12:38:02;97705.19;;;9.09;47.67
9740;BME280;4909;42.680;26.324;2024-01-15T12:40:30;97683.50;;;9.19;46.67
9740;BME280;4909;42.680;26.324;2024-01-15T12:42:57;97695.69;;;9.21;45.88
9740;BME280;4909;42.680;26.324;2024-01-15T12:45:24;97622.94;;;8.64;46.21
9740;BME280;4909;42.680;26.324;2024-01-15T12:47:53;97660.06;;;8.95;46.32
9740;BME280;4909;42.680;26.324;2024-01-15T12:50:24;97657.44;;;8.95;45.74
9740;BME280;4909;42.680;26.324;2024-01-15T12:52:52;97675.94;;;8.95;45.60
9740;BME280;4909;42.680;26.324;2024-01-15T12:55:19;97699.78;;;9.11;45.64
9740;BME280;4909;42.680;26.324;2024-01-15T12:57:46;97705.03;;;9.28;45.30
9740;BME280;4909;42.680;26.324;2024-01-15T13:00:14;97703.00;;;9.33;46.08
9740;BME280;4909;42.680;26.324;2024-01-15T13:02:41;97714.03;;;9.41;45.23
9740;BME280;4909;42.680;26.324;2024-01-15T13:05:10;97710.00;;;9.50;43.70
9740;BME280;4909;42.680;26.324;2024-01-15T13:07:38;97680.13;;;9.15;43.60
9740;BME280;4909;42.680;26.324;2024-01-15T13:10:05;97653.44;;;8.87;43.86
9740;BME280;4909;42.680;26.324;2024-01-15T13:12:33;97686.03;;;9.04;44.02
9740;BME280;4909;42.680;26.324;2024-01-15T13:15:00;97649.63;;;8.92;44.40
9740;BME280;4909;42.680;26.324;2024-01-15T13:17:29;97676.81;;;9.11;43.85
9740;BME280;4909;42.680;26.324;2024-01-15T13:19:56;97621.81;;;8.85;43.17
9740;BME280;4909;42.680;26.324;2024-01-15T13:22:24;97617.13;;;8.90;42.77
9740;BME280;4909;42.680;26.324;2024-01-15T13:24:57;97669.47;;;9.16;44.06